Time;durP1;ratioP1;P1;durP2;ratioP2;P2;SDS_P1;SDS_P2;PMS_P1;PMS_P2;Temp;Humidity;BMP_temperature;BMP_pressure;BME280_temperature;BME280_humidity;BME280_pressure;Samples;Min_cycle;Max_cycle;Signal;HPM_P1;HPM_P2
2021/07/09 00:01:00;;;;;;;15.65;9.70;;;;;;;;;;5037846;28;20102;-64
2021/07/09 00:03:26;;;;;;;16.13;10.50;;;;;;;;;;5036063;28;20060;-64
2021/07/09 00:05:51;;;;;;;17.58;10.18;;;;;;;;;;5042460;28;20018;-64
2021/07/09 00:08:16;;;;;;;21.10;11.07;;;;;;;;;;5047781;28;20036;-64
2021/07/09 00:10:41;;;;;;;14.57;9.80;;;;;;;;;;5046737;28;20020;-64
2021/07/09 00:13:06;;;;;;;20.80;10.88;;;;;;;;;;5039454;28;20322;-64
2021/07/09 00:15:33;;;;;;;17.00;10.47;;;;;;;;;;5035679;28;20018;-64
2021/07/09 00:17:59;;;;;;;15.68;9.20;;;;;;;;;;5041370;28;20298;-64
2021/07/09 00:20:24;;;;;;;15.63;9.67;;;;;;;;;;5031911;28;20029;-64
2021/07/09 00:22:49;;;;;;;23.50;9.07;;;;;;;;;;5048587;28;20308;-64
2021/07/09 00:25:15;;;;;;;18.33;10.82;;;;;;;;;;5036722;28;20268;-64
2021/07/09 00:27:40;;;;;;;23.27;10.80;;;;;;;;;;5032857;28;20017;-64
2021/07/09 00:30:05;;;;;;;16.97;9.63;;;;;;;;;;5036044;28;20079;-64
2021/07/09 00:32:30;;;;;;;17.50;9.88;;;;;;;;;;5044540;28;20636;-64
2021/07/09 00:34:55;;;;;;;15.53;9.37;;;;;;;;;;5030620;28;20021;-64
2021/07/09 00:37:21;;;;;;;14.43;9.57;;;;;;;;;;5040139;28;20632;-64
2021/07/09 00:39:46;;;;;;;12.05;8.70;;;;;;;;;;5045821;28;20366;-64
2021/07/09 00:42:11;;;;;;;22.33;8.23;;;;;;;;;;5037060;28;20053;-64
2021/07/09 00:44:36;;;;;;;14.07;7.93;;;;;;;;;;5040324;28;20309;-64
2021/07/09 00:47:01;;;;;;;15.37;8.73;;;;;;;;;;5043310;28;20268;-64
2021/07/09 00:49:27;;;;;;;15.20;8.25;;;;;;;;;;5040872;28;20260;-64
2021/07/09 00:51:52;;;;;;;15.57;7.80;;;;;;;;;;5036957;28;20107;-64
2021/07/09 00:54:17;;;;;;;20.57;9.13;;;;;;;;;;5044609;28;20272;-64
2021/07/09 00:56:42;;;;;;;13.13;7.93;;;;;;;;;;5040527;28;20278;-64
2021/07/09 00:59:13;;;;;;;20.45;7.93;;;;;;;;;;5046276;28;20034;-64
2021/07/09 01:01:38;;;;;;;15.32;7.82;;;;;;;;;;5044991;28;20021;-64
2021/07/09 01:04:03;;;;;;;12.87;8.13;;;;;;;;;;5041015;28;20481;-64
2021/07/09 01:06:28;;;;;;;11.65;7.47;;;;;;;;;;5037112;28;20260;-64
2021/07/09 01:08:54;;;;;;;15.00;8.02;;;;;;;;;;5043850;28;20041;-64
2021/07/09 01:11:20;;;;;;;12.73;7.60;;;;;;;;;;5037450;28;20465;-64
2021/07/09 01:13:45;;;;;;;13.77;7.88;;;;;;;;;;5037039;28;20025;-64
2021/07/09 01:16:12;;;;;;;17.00;7.25;;;;;;;;;;5045216;28;20074;-64
2021/07/09 01:18:37;;;;;;;10.35;6.95;;;;;;;;;;5041184;28;20041;-64
2021/07/09 01:21:07;;;;;;;12.55;7.18;;;;;;;;;;5034884;28;20216;-64
2021/07/09 01:23:32;;;;;;;15.32;7.15;;;;;;;;;;5046894;28;20074;-64
2021/07/09 01:25:57;;;;;;;11.63;7.53;;;;;;;;;;5048795;28;20653;-64
2021/07/09 01:28:22;;;;;;;10.63;7.85;;;;;;;;;;5039990;28;20025;-64
2021/07/09 01:30:48;;;;;;;15.93;8.02;;;;;;;;;;5042762;28;20017;-64
2021/07/09 01:33:13;;;;;;;14.57;7.97;;;;;;;;;;5048581;28;20033;-64
2021/07/09 01:35:38;;;;;;;11.40;8.10;;;;;;;;;;5033633;28;20082;-64
2021/07/09 01:38:06;;;;;;;19.65;9.77;;;;;;;;;;5035428;28;20276;-64
2021/07/09 01:40:31;;;;;;;19.33;8.85;;;;;;;;;;5033361;28;20449;-64
2021/07/09 01:42:57;;;;;;;18.58;9.43;;;;;;;;;;5032907;28;20112;-64
2021/07/09 01:45:22;;;;;;;20.98;9.02;;;;;;;;;;5036964;28;20024;-64
2021/07/09 01:47:48;;;;;;;16.30;8.95;;;;;;;;;;5047741;28;20477;-64
2021/07/09 01:50:13;;;;;;;14.52;9.20;;;;;;;;;;5040105;28;20579;-64
2021/07/09 01:52:39;;;;;;;20.38;9.25;;;;;;;;;;5046908;28;20112;-64
2021/07/09 01:55:05;;;;;;;18.40;8.73;;;;;;;;;;5051152;28;20082;-64
2021/07/09 01:57:30;;;;;;;14.70;8.20;;;;;;;;;;5044521;28;20461;-64
2021/07/09 01:59:56;;;;;;;12.23;8.32;;;;;;;;;;5020838;28;20068;-64
2021/07/09 02:02:21;;;;;;;18.98;9.07;;;;;;;;;;5048834;28;20021;-64
2021/07/09 02:04:51;;;;;;;19.73;9.65;;;;;;;;;;5036919;28;20709;-64
2021/07/09 02:07:17;;;;;;;17.55;8.70;;;;;;;;;;5034053;28;20025;-64
2021/07/09 02:09:43;;;;;;;15.85;8.20;;;;;;;;;;5033620;28;20033;-64
2021/07/09 02:12:10;;;;;;;26.52;8.80;;;;;;;;;;5045357;28;20041;-64
2021/07/09 02:14:35;;;;;;;13.65;8.15;;;;;;;;;;5044337;28;20092;-64
2021/07/09 02:17:00;;;;;;;14.05;8.70;;;;;;;;;;5045041;28;20032;-64
2021/07/09 02:19:26;;;;;;;13.35;7.78;;;;;;;;;;5038503;28;20087;-64
2021/07/09 02:21:52;;;;;;;13.32;8.48;;;;;;;;;;5039987;28;20092;-64
2021/07/09 02:24:18;;;;;;;12.80;7.43;;;;;;;;;;5038460;28;20031;-64
2021/07/09 02:26:43;;;;;;;13.80;7.77;;;;;;;;;;5047808;28;20017;-64
2021/07/09 02:29:08;;;;;;;19.70;8.00;;;;;;;;;;5044947;28;20272;-64
2021/07/09 02:31:34;;;;;;;27.75;9.30;;;;;;;;;;5032035;28;20272;-64
2021/07/09 02:33:59;;;;;;;12.10;8.35;;;;;;;;;;5043273;28;20025;-64
2021/07/09 02:36:24;;;;;;;11.13;8.23;;;;;;;;;;5039585;28;20029;-64
2021/07/09 02:38:49;;;;;;;15.43;7.70;;;;;;;;;;5035647;28;20029;-64
2021/07/09 02:41:14;;;;;;;11.80;7.38;;;;;;;;;;5038653;28;20276;-64
2021/07/09 02:43:40;;;;;;;10.97;7.67;;;;;;;;;;5037936;28;20025;-64
2021/07/09 02:46:05;;;;;;;24.00;9.48;;;;;;;;;;5033372;28;20415;-64
2021/07/09 02:48:30;;;;;;;14.70;8.37;;;;;;;;;;5039128;28;20049;-64
2021/07/09 02:50:55;;;;;;;14.73;8.03;;;;;;;;;;5031533;28;20750;-64
2021/07/09 02:53:20;;;;;;;16.60;8.15;;;;;;;;;;5034005;28;20278;-64
2021/07/09 02:55:46;;;;;;;18.13;8.73;;;;;;;;;;5041185;28;20032;-64
2021/07/09 02:58:11;;;;;;;14.20;7.77;;;;;;;;;;5043862;28;20399;-64
2021/07/09 03:00:37;;;;;;;17.95;7.63;;;;;;;;;;5048611;28;20268;-64
2021/07/09 03:03:02;;;;;;;17.33;8.00;;;;;;;;;;5039329;28;20074;-64
2021/07/09 03:05:27;;;;;;;16.23;7.95;;;;;;;;;;5043838;28;20268;-64
2021/07/09 03:07:52;;;;;;;12.93;7.80;;;;;;;;;;5033620;28;20018;-64
2021/07/09 03:10:17;;;;;;;15.33;8.37;;;;;;;;;;5045516;28;20067;-64
2021/07/09 03:12:43;;;;;;;16.10;8.40;;;;;;;;;;5047481;28;20267;-64
2021/07/09 03:15:09;;;;;;;14.43;8.47;;;;;;;;;;5040053;28;20362;-64
2021/07/09 03:17:34;;;;;;;18.30;8.57;;;;;;;;;;5035981;28;20355;-63
2021/07/09 03:19:59;;;;;;;14.68;8.30;;;;;;;;;;5044794;28;20108;-64
2021/07/09 03:22:25;;;;;;;13.50;7.80;;;;;;;;;;5040785;28;20020;-64
2021/07/09 03:24:50;;;;;;;15.23;8.52;;;;;;;;;;5046433;28;20013;-64
2021/07/09 03:27:15;;;;;;;15.23;8.43;;;;;;;;;;5050057;28;20025;-64
2021/07/09 03:29:40;;;;;;;19.60;8.90;;;;;;;;;;5038281;28;20303;-64
2021/07/09 03:32:06;;;;;;;16.93;9.57;;;;;;;;;;5049153;28;20905;-64
2021/07/09 03:34:31;;;;;;;21.45;9.75;;;;;;;;;;5038169;28;20268;-64
2021/07/09 03:36:56;;;;;;;12.65;8.82;;;;;;;;;;5043203;28;20090;-64
2021/07/09 03:39:21;;;;;;;24.38;9.27;;;;;;;;;;5046820;28;20025;-64
2021/07/09 03:41:46;;;;;;;17.27;10.05;;;;;;;;;;5039434;28;20029;-63
2021/07/09 03:44:12;;;;;;;16.27;8.67;;;;;;;;;;5039116;28;20409;-64
2021/07/09 03:46:40;;;;;;;16.10;8.55;;;;;;;;;;5030393;28;20371;-64
2021/07/09 03:49:08;;;;;;;14.20;8.48;;;;;;;;;;5030856;28;20021;-64
2021/07/09 03:51:35;;;;;;;19.55;9.02;;;;;;;;;;5032574;28;20025;-63
2021/07/09 03:54:00;;;;;;;15.57;10.38;;;;;;;;;;5031156;28;20028;-64
2021/07/09 03:56:28;;;;;;;17.63;9.30;;;;;;;;;;5046866;28;20033;-64
2021/07/09 03:58:54;;;;;;;16.27;9.10;;;;;;;;;;5038670;28;20839;-64
2021/07/09 04:01:19;;;;;;;15.43;9.75;;;;;;;;;;5043240;28;20104;-64
2021/07/09 04:03:44;;;;;;;18.47;9.17;;;;;;;;;;5037788;28;20021;-64
2021/07/09 04:06:09;;;;;;;13.98;9.02;;;;;;;;;;5042969;28;20265;-64
2021/07/09 04:08:35;;;;;;;18.27;8.75;;;;;;;;;;5044096;28;20624;-64
2021/07/09 04:11:00;;;;;;;22.10;9.80;;;;;;;;;;5032980;28;20013;-64
2021/07/09 04:13:25;;;;;;;11.23;8.23;;;;;;;;;;5043235;28;20371;-64
2021/07/09 04:15:50;;;;;;;23.73;10.27;;;;;;;;;;5036455;28;20644;-64
2021/07/09 04:18:15;;;;;;;14.93;8.83;;;;;;;;;;5032381;28;20280;-64
2021/07/09 04:20:40;;;;;;;22.70;8.83;;;;;;;;;;5042763;28;20278;-64
2021/07/09 04:23:06;;;;;;;20.33;9.10;;;;;;;;;;5039830;28;20276;-64
2021/07/09 04:25:31;;;;;;;15.18;9.48;;;;;;;;;;5037274;28;20017;-64
2021/07/09 04:27:56;;;;;;;17.65;10.43;;;;;;;;;;5032631;28;20386;-64
2021/07/09 04:30:21;;;;;;;14.13;9.07;;;;;;;;;;5044233;28;20024;-64
2021/07/09 04:32:47;;;;;;;22.60;9.23;;;;;;;;;;5043709;28;20104;-64
2021/07/09 04:35:12;;;;;;;13.80;9.30;;;;;;;;;;5052739;28;20112;-64
2021/07/09 04:37:38;;;;;;;19.40;9.65;;;;;;;;;;5039748;28;20287;-64
2021/07/09 04:40:04;;;;;;;17.60;10.00;;;;;;;;;;5048560;28;20509;-64
2021/07/09 04:42:29;;;;;;;17.98;10.65;;;;;;;;;;5037854;28;20022;-64
2021/07/09 04:44:54;;;;;;;19.25;10.63;;;;;;;;;;5039765;28;20024;-64
2021/07/09 04:47:20;;;;;;;20.93;11.80;;;;;;;;;;5041761;28;20017;-64
2021/07/09 04:49:45;;;;;;;24.52;11.50;;;;;;;;;;5050345;28;20278;-64
2021/07/09 04:52:11;;;;;;;28.25;13.02;;;;;;;;;;5046990;28;20025;-64
2021/07/09 04:54:36;;;;;;;21.43;12.07;;;;;;;;;;5041380;28;20417;-64
2021/07/09 04:57:01;;;;;;;27.35;12.18;;;;;;;;;;5049979;28;20280;-64
2021/07/09 04:59:26;;;;;;;35.85;17.08;;;;;;;;;;5034052;28;20029;-64
2021/07/09 05:01:51;;;;;;;30.30;15.98;;;;;;;;;;5044231;28;20056;-64
2021/07/09 05:04:17;;;;;;;32.67;15.20;;;;;;;;;;5046960;28;20021;-64
2021/07/09 05:06:42;;;;;;;50.55;23.45;;;;;;;;;;5045104;28;20013;-64
2021/07/09 05:09:07;;;;;;;49.17;20.20;;;;;;;;;;5042319;28;20100;-63
2021/07/09 05:11:35;;;;;;;57.50;24.47;;;;;;;;;;5042675;28;20256;-64
2021/07/09 05:14:01;;;;;;;55.17;24.80;;;;;;;;;;5039417;28;20359;-64
2021/07/09 05:16:26;;;;;;;48.47;23.83;;;;;;;;;;5045704;28;20440;-64
2021/07/09 05:18:53;;;;;;;50.25;24.73;;;;;;;;;;5047553;28;20025;-64
2021/07/09 05:21:18;;;;;;;48.60;25.83;;;;;;;;;;5052247;28;20508;-64
2021/07/09 05:23:43;;;;;;;57.70;25.83;;;;;;;;;;5040624;28;20029;-64
2021/07/09 05:26:08;;;;;;;51.33;24.73;;;;;;;;;;5049581;28;20385;-64
2021/07/09 05:28:33;;;;;;;49.53;24.83;;;;;;;;;;5047580;28;20267;-64
2021/07/09 05:30:59;;;;;;;58.53;26.20;;;;;;;;;;5039256;28;20259;-64
2021/07/09 05:33:24;;;;;;;69.87;34.40;;;;;;;;;;5045377;28;20018;-64
2021/07/09 05:35:49;;;;;;;76.23;32.73;;;;;;;;;;5045620;28;20789;-64
2021/07/09 05:38:14;;;;;;;67.83;32.27;;;;;;;;;;5041659;28;20260;-64
2021/07/09 05:40:40;;;;;;;63.10;31.73;;;;;;;;;;5035493;28;20268;-64
2021/07/09 05:43:05;;;;;;;73.75;32.78;;;;;;;;;;5029361;28;20275;-64
2021/07/09 05:45:30;;;;;;;82.60;34.28;;;;;;;;;;5029653;28;20021;-64
2021/07/09 05:47:56;;;;;;;65.77;32.70;;;;;;;;;;5030174;28;20226;-64
2021/07/09 05:50:21;;;;;;;68.05;33.30;;;;;;;;;;5033083;28;20290;-64
2021/07/09 05:52:48;;;;;;;70.95;33.95;;;;;;;;;;5045665;28;20061;-64
2021/07/09 05:55:13;;;;;;;70.35;33.35;;;;;;;;;;5036024;28;20024;-64
2021/07/09 05:57:38;;;;;;;58.83;31.92;;;;;;;;;;5048516;28;20029;-64
2021/07/09 06:00:05;;;;;;;64.60;32.10;;;;;;;;;;5040567;28;20070;-64
2021/07/09 06:02:30;;;;;;;69.78;33.22;;;;;;;;;;5029560;28;20108;-64
2021/07/09 06:04:55;;;;;;;66.27;31.47;;;;;;;;;;5037472;28;20263;-64
2021/07/09 06:07:20;;;;;;;71.43;33.13;;;;;;;;;;5032992;28;20267;-64
2021/07/09 06:09:46;;;;;;;59.03;32.30;;;;;;;;;;5033016;28;20302;-64
2021/07/09 06:12:11;;;;;;;56.93;30.77;;;;;;;;;;5042940;28;20426;-64
2021/07/09 06:14:36;;;;;;;71.82;32.83;;;;;;;;;;5045592;28;20617;-64
2021/07/09 06:17:01;;;;;;;66.78;34.88;;;;;;;;;;5046715;28;20059;-64
2021/07/09 06:19:26;;;;;;;75.78;35.08;;;;;;;;;;5042792;28;20013;-64
2021/07/09 06:21:52;;;;;;;70.17;33.13;;;;;;;;;;5066673;28;20020;-64
2021/07/09 06:24:17;;;;;;;67.93;36.53;;;;;;;;;;5037029;28;20272;-64
2021/07/09 06:26:42;;;;;;;72.05;34.97;;;;;;;;;;5036358;28;20264;-64
2021/07/09 06:29:07;;;;;;;74.65;37.15;;;;;;;;;;5045059;28;20091;-64
2021/07/09 06:31:33;;;;;;;73.03;37.30;;;;;;;;;;5042771;28;20075;-64
2021/07/09 06:33:58;;;;;;;82.83;37.37;;;;;;;;;;5041608;28;20100;-64
2021/07/09 06:36:24;;;;;;;76.50;36.35;;;;;;;;;;5038867;28;20267;-64
2021/07/09 06:38:49;;;;;;;78.75;37.13;;;;;;;;;;5032369;28;20021;-64
2021/07/09 06:41:15;;;;;;;70.07;36.58;;;;;;;;;;5031265;28;20024;-64
2021/07/09 06:43:40;;;;;;;65.25;37.88;;;;;;;;;;5032039;28;20033;-63
2021/07/09 06:46:05;;;;;;;65.97;38.70;;;;;;;;;;5038389;28;20025;-64
2021/07/09 06:48:30;;;;;;;72.67;36.40;;;;;;;;;;5040520;28;20048;-64
2021/07/09 06:50:55;;;;;;;62.42;38.38;;;;;;;;;;5047534;28;20698;-64
2021/07/09 06:53:21;;;;;;;72.17;36.70;;;;;;;;;;5033286;28;20096;-64
2021/07/09 06:55:46;;;;;;;75.97;38.07;;;;;;;;;;5049868;28;20263;-63
2021/07/09 06:58:11;;;;;;;79.17;39.90;;;;;;;;;;5050233;28;20268;-64
2021/07/09 07:00:37;;;;;;;73.63;39.30;;;;;;;;;;5043542;28;20263;-64
2021/07/09 07:03:03;;;;;;;85.18;42.70;;;;;;;;;;5039593;28;20022;-64
2021/07/09 07:05:28;;;;;;;93.45;43.85;;;;;;;;;;5042641;28;20499;-64
2021/07/09 07:07:53;;;;;;;96.87;45.50;;;;;;;;;;5031825;28;20021;-65
2021/07/09 07:10:18;;;;;;;87.07;43.35;;;;;;;;;;5048283;28;20269;-65
2021/07/09 07:12:46;;;;;;;88.87;46.20;;;;;;;;;;5040145;28;20104;-65
2021/07/09 07:15:11;;;;;;;96.00;46.03;;;;;;;;;;5030727;28;20272;-65
2021/07/09 07:17:37;;;;;;;87.10;45.08;;;;;;;;;;5048810;28;20499;-64
2021/07/09 07:20:03;;;;;;;90.97;44.10;;;;;;;;;;5047833;28;20033;-64
2021/07/09 07:22:28;;;;;;;81.05;43.00;;;;;;;;;;5058105;28;20514;-64
2021/07/09 07:24:54;;;;;;;77.80;41.20;;;;;;;;;;5047029;28;20278;-64
2021/07/09 07:27:21;;;;;;;76.55;40.70;;;;;;;;;;5030656;28;20764;-64
2021/07/09 07:29:46;;;;;;;74.85;40.78;;;;;;;;;;5030477;28;20048;-64
2021/07/09 07:32:12;;;;;;;82.30;43.80;;;;;;;;;;5031646;28;20482;-65
2021/07/09 07:34:37;;;;;;;83.53;45.25;;;;;;;;;;5031835;28;20072;-64
2021/07/09 07:37:02;;;;;;;88.15;47.22;;;;;;;;;;5046164;28;20013;-64
2021/07/09 07:39:27;;;;;;;78.15;44.53;;;;;;;;;;5049197;28;20381;-65
2021/07/09 07:41:53;;;;;;;78.77;45.37;;;;;;;;;;5032705;28;20025;-65
2021/07/09 07:44:18;;;;;;;86.50;43.25;;;;;;;;;;5031073;28;20764;-65
2021/07/09 07:46:48;;;;;;;94.20;44.70;;;;;;;;;;5046959;28;20025;-65
2021/07/09 07:49:13;;;;;;;83.45;45.63;;;;;;;;;;5034064;28;20264;-64
2021/07/09 07:51:38;;;;;;;94.38;48.53;;;;;;;;;;5048733;28;20044;-65
2021/07/09 07:54:04;;;;;;;94.20;49.20;;;;;;;;;;5038069;28;20375;-64
2021/07/09 07:56:29;;;;;;;91.60;47.17;;;;;;;;;;5043813;28;20112;-65
2021/07/09 07:58:54;;;;;;;93.43;48.30;;;;;;;;;;5037376;28;20463;-64
2021/07/09 08:01:19;;;;;;;94.77;48.20;;;;;;;;;;5030334;28;20741;-64
2021/07/09 08:03:44;;;;;;;99.57;50.42;;;;;;;;;;5036905;28;20375;-64
2021/07/09 08:06:10;;;;;;;110.15;54.55;;;;;;;;;;5041992;28;20351;-64
2021/07/09 08:08:36;;;;;;;108.70;51.92;;;;;;;;;;5035871;28;20029;-65
2021/07/09 08:11:01;;;;;;;104.63;52.08;;;;;;;;;;5024819;28;20022;-64
2021/07/09 08:13:26;;;;;;;120.10;54.80;;;;;;;;;;5041149;28;20039;-65
2021/07/09 08:15:51;;;;;;;118.47;57.17;;;;;;;;;;5048977;28;20067;-64
2021/07/09 08:18:16;;;;;;;123.15;58.33;;;;;;;;;;5038505;28;20268;-64
2021/07/09 08:20:43;;;;;;;132.52;60.25;;;;;;;;;;5035243;28;20113;-64
2021/07/09 08:23:08;;;;;;;133.07;60.72;;;;;;;;;;5035380;28;20501;-64
2021/07/09 08:25:33;;;;;;;118.97;56.60;;;;;;;;;;5033786;28;20465;-64
2021/07/09 08:27:58;;;;;;;128.90;54.47;;;;;;;;;;5049313;28;20025;-64
2021/07/09 08:30:24;;;;;;;123.07;53.90;;;;;;;;;;5040008;28;20264;-64
2021/07/09 08:32:49;;;;;;;111.63;55.33;;;;;;;;;;5048533;28;20740;-64
2021/07/09 08:35:14;;;;;;;114.88;52.10;;;;;;;;;;5034415;28;20248;-64
2021/07/09 08:37:41;;;;;;;112.18;52.55;;;;;;;;;;5050121;28;20038;-64
2021/07/09 08:40:07;;;;;;;110.80;51.53;;;;;;;;;;5066209;28;20029;-64
2021/07/09 08:42:32;;;;;;;106.32;50.78;;;;;;;;;;5053636;28;20485;-64
2021/07/09 08:44:57;;;;;;;114.30;51.90;;;;;;;;;;5039028;28;20017;-64
2021/07/09 08:47:27;;;;;;;114.78;51.00;;;;;;;;;;5068875;28;20032;-64
2021/07/09 08:49:52;;;;;;;109.72;50.47;;;;;;;;;;5067519;28;20098;-64
2021/07/09 08:52:17;;;;;;;107.35;51.42;;;;;;;;;;5051720;28;20052;-64
2021/07/09 08:54:43;;;;;;;102.40;50.53;;;;;;;;;;5045615;28;20291;-64
2021/07/09 08:57:08;;;;;;;97.47;48.47;;;;;;;;;;5033149;28;20276;-64
2021/07/09 08:59:33;;;;;;;100.90;47.50;;;;;;;;;;5045746;28;20263;-64
2021/07/09 09:02:03;;;;;;;96.63;46.70;;;;;;;;;;5054561;28;20040;-64
2021/07/09 09:04:33;;;;;;;91.40;47.10;;;;;;;;;;5039569;28;20779;-64
2021/07/09 09:07:03;;;;;;;91.95;44.85;;;;;;;;;;5050200;28;20398;-64
2021/07/09 09:09:28;;;;;;;77.75;39.78;;;;;;;;;;5038451;28;20029;-64
2021/07/09 09:12:16;;;;;;;68.30;36.60;;;;;;;;;;5033885;28;20021;-64
2021/07/09 09:14:42;;;;;;;61.97;35.95;;;;;;;;;;5031948;28;20045;-64
2021/07/09 09:17:27;;;;;;;66.70;37.20;;;;;;;;;;5040313;28;20017;-64
2021/07/09 09:20:07;;;;;;;60.20;32.30;;;;;;;;;;5051166;28;20382;-64
2021/07/09 09:22:39;;;;;;;62.13;34.47;;;;;;;;;;5036404;28;20428;-64
2021/07/09 09:25:04;;;;;;;61.45;34.25;;;;;;;;;;5051665;28;20043;-64
2021/07/09 09:27:29;;;;;;;59.53;35.80;;;;;;;;;;5050240;28;20048;-64
2021/07/09 09:29:55;;;;;;;58.70;33.37;;;;;;;;;;5049691;28;20022;-64
2021/07/09 09:32:20;;;;;;;69.73;35.20;;;;;;;;;;5039885;28;20268;-64
2021/07/09 09:34:46;;;;;;;53.87;34.53;;;;;;;;;;5039594;28;20678;-64
2021/07/09 09:37:12;;;;;;;62.13;34.83;;;;;;;;;;5033462;28;20041;-64
2021/07/09 09:39:42;;;;;;;57.25;35.70;;;;;;;;;;5032563;28;20249;-64
2021/07/09 09:42:08;;;;;;;56.83;35.67;;;;;;;;;;5047032;28;20068;-64
2021/07/09 09:44:35;;;;;;;52.33;34.78;;;;;;;;;;5050559;28;20315;-64
2021/07/09 09:47:13;;;;;;;59.25;34.38;;;;;;;;;;5048363;28;20036;-64
2021/07/09 09:49:38;;;;;;;54.30;33.08;;;;;;;;;;5049795;28;20013;-64
2021/07/09 09:52:04;;;;;;;58.90;34.20;;;;;;;;;;5039412;28;20083;-65
2021/07/09 09:54:35;;;;;;;57.15;32.40;;;;;;;;;;5033176;28;20684;-64
2021/07/09 09:57:00;;;;;;;55.65;32.25;;;;;;;;;;5037494;28;20414;-64
2021/07/09 09:59:26;;;;;;;52.17;33.08;;;;;;;;;;5041083;28;20121;-64
2021/07/09 10:01:54;;;;;;;50.90;32.10;;;;;;;;;;5049361;28;20028;-64
2021/07/09 10:04:20;;;;;;;51.47;32.05;;;;;;;;;;5050398;28;20028;-64
2021/07/09 10:06:46;;;;;;;53.63;31.65;;;;;;;;;;5034584;28;20021;-64
2021/07/09 10:09:12;;;;;;;51.55;27.88;;;;;;;;;;5032118;28;20032;-64
2021/07/09 10:11:41;;;;;;;45.75;24.60;;;;;;;;;;5035887;28;20028;-64
2021/07/09 10:14:11;;;;;;;44.90;23.70;;;;;;;;;;5047956;28;20021;-64
2021/07/09 10:16:37;;;;;;;50.38;22.85;;;;;;;;;;5038676;28;20037;-64
2021/07/09 10:19:04;;;;;;;42.05;22.27;;;;;;;;;;5040683;28;20449;-64
2021/07/09 10:21:29;;;;;;;39.60;22.00;;;;;;;;;;5048679;28;20354;-64
2021/07/09 10:23:54;;;;;;;61.53;25.73;;;;;;;;;;5052038;28;20048;-66
2021/07/09 10:26:20;;;;;;;49.50;23.73;;;;;;;;;;5049781;28;20025;-65
2021/07/09 10:29:04;;;;;;;47.85;24.67;;;;;;;;;;5045281;28;20022;-65
2021/07/09 10:31:35;;;;;;;50.17;26.45;;;;;;;;;;5032096;28;20168;-65
2021/07/09 10:34:20;;;;;;;52.63;28.58;;;;;;;;;;5045505;28;20017;-65
2021/07/09 10:36:56;;;;;;;49.83;24.20;;;;;;;;;;5037470;28;20489;-65
2021/07/09 10:39:34;;;;;;;43.25;23.63;;;;;;;;;;5034763;28;20029;-65
2021/07/09 10:42:19;;;;;;;48.42;20.90;;;;;;;;;;5039256;28;20021;-65
2021/07/09 10:44:57;;;;;;;42.75;23.58;;;;;;;;;;5039628;28;20362;-65
2021/07/09 10:47:23;;;;;;;46.03;21.30;;;;;;;;;;5051059;28;20021;-65
2021/07/09 10:49:51;;;;;;;45.42;23.45;;;;;;;;;;5043041;28;20027;-65
2021/07/09 10:52:34;;;;;;;45.00;22.77;;;;;;;;;;5031707;28;20293;-65
2021/07/09 10:55:00;;;;;;;42.78;22.85;;;;;;;;;;5068493;28;20095;-65
2021/07/09 10:57:25;;;;;;;51.95;24.30;;;;;;;;;;5059024;28;20100;-65
2021/07/09 11:00:09;;;;;;;59.63;27.27;;;;;;;;;;5024162;28;20060;-65
2021/07/09 11:02:53;;;;;;;64.20;27.63;;;;;;;;;;5049603;28;20322;-65
2021/07/09 11:05:36;;;;;;;55.83;25.45;;;;;;;;;;5035139;28;20504;-65
2021/07/09 11:08:20;;;;;;;54.45;23.90;;;;;;;;;;5112125;22;20059;-66
2021/07/09 11:10:55;;;;;;;41.67;24.45;;;;;;;;;;5065411;28;20066;-65
2021/07/09 11:13:38;;;;;;;42.15;22.40;;;;;;;;;;5052385;28;20020;-65
2021/07/09 11:16:15;;;;;;;44.65;21.73;;;;;;;;;;5064306;28;20081;-65
2021/07/09 11:18:50;;;;;;;40.17;22.73;;;;;;;;;;5052658;28;20041;-65
2021/07/09 11:21:16;;;;;;;36.00;21.40;;;;;;;;;;5045809;28;20442;-65
2021/07/09 11:23:52;;;;;;;40.40;22.83;;;;;;;;;;5043868;28;20389;-65
2021/07/09 11:26:17;;;;;;;34.08;19.35;;;;;;;;;;5047978;28;20016;-65
2021/07/09 11:28:42;;;;;;;33.73;18.57;;;;;;;;;;5061199;28;20457;-64
2021/07/09 11:31:07;;;;;;;36.27;18.60;;;;;;;;;;5047900;28;20021;-65
2021/07/09 11:33:32;;;;;;;29.93;15.17;;;;;;;;;;5050155;28;20271;-65
2021/07/09 11:35:57;;;;;;;33.63;16.07;;;;;;;;;;5049364;28;20770;-64
2021/07/09 11:38:23;;;;;;;27.40;15.93;;;;;;;;;;5049592;28;20630;-65
2021/07/09 11:40:48;;;;;;;32.63;16.73;;;;;;;;;;5057880;28;20272;-65
2021/07/09 11:43:14;;;;;;;24.40;13.50;;;;;;;;;;5050336;28;20021;-65
2021/07/09 11:45:39;;;;;;;28.98;15.25;;;;;;;;;;5048741;28;20075;-65
2021/07/09 11:48:06;;;;;;;30.90;16.57;;;;;;;;;;5044448;28;20111;-65
2021/07/09 11:50:34;;;;;;;33.08;15.38;;;;;;;;;;5045520;28;20022;-65
2021/07/09 11:52:59;;;;;;;25.27;14.73;;;;;;;;;;5044263;28;20036;-65
2021/07/09 11:55:28;;;;;;;27.23;15.53;;;;;;;;;;5046334;28;20013;-66
2021/07/09 11:57:54;;;;;;;31.95;16.35;;;;;;;;;;5049714;28;20021;-65
2021/07/09 12:00:20;;;;;;;37.60;18.88;;;;;;;;;;5049446;28;20078;-65
2021/07/09 12:02:46;;;;;;;30.75;16.58;;;;;;;;;;5033354;28;20029;-65
2021/07/09 12:05:12;;;;;;;36.00;16.58;;;;;;;;;;5046693;28;20082;-66
2021/07/09 12:07:37;;;;;;;30.20;17.02;;;;;;;;;;5047740;28;20092;-65
2021/07/09 12:10:07;;;;;;;34.83;19.75;;;;;;;;;;5046223;28;20018;-65
2021/07/09 12:12:45;;;;;;;33.95;19.42;;;;;;;;;;5059265;28;20028;-65
2021/07/09 12:15:14;;;;;;;29.27;18.25;;;;;;;;;;5040660;28;20021;-66
2021/07/09 12:17:41;;;;;;;35.70;19.30;;;;;;;;;;5050115;28;20461;-65
2021/07/09 12:20:18;;;;;;;42.78;21.33;;;;;;;;;;5047149;28;20039;-66
2021/07/09 12:22:50;;;;;;;40.42;21.92;;;;;;;;;;5044174;28;20543;-66
2021/07/09 12:25:17;;;;;;;34.88;19.83;;;;;;;;;;5047871;28;20354;-65
2021/07/09 12:27:42;;;;;;;41.83;21.55;;;;;;;;;;5049413;28;20397;-66
2021/07/09 12:30:09;;;;;;;37.20;19.40;;;;;;;;;;5049604;28;20025;-66
2021/07/09 12:32:41;;;;;;;35.10;19.83;;;;;;;;;;5044210;28;20036;-66
2021/07/09 12:35:08;;;;;;;34.05;18.85;;;;;;;;;;5049860;28;20052;-66
2021/07/09 12:37:33;;;;;;;30.65;18.50;;;;;;;;;;5048761;28;20024;-66
2021/07/09 12:40:15;;;;;;;36.53;19.45;;;;;;;;;;5048764;28;20013;-66
2021/07/09 12:42:41;;;;;;;38.55;19.88;;;;;;;;;;5041261;28;20504;-65
2021/07/09 12:45:06;;;;;;;32.08;17.77;;;;;;;;;;5039972;28;20033;-65
2021/07/09 12:47:32;;;;;;;37.08;19.50;;;;;;;;;;5048341;28;20084;-66
2021/07/09 12:50:13;;;;;;;39.35;21.85;;;;;;;;;;5066534;28;20028;-66
2021/07/09 12:52:38;;;;;;;;;;;;;;;;;;5054153;28;20469;-66
2021/07/09 12:55:03;;;;;;;29.27;17.27;;;;;;;;;;5053464;28;20357;-66
2021/07/09 12:57:28;;;;;;;37.00;21.20;;;;;;;;;;5047867;28;20064;-66
2021/07/09 12:59:57;;;;;;;29.57;18.57;;;;;;;;;;5040106;28;20032;-66
2021/07/09 13:02:24;;;;;;;40.75;18.88;;;;;;;;;;5051057;28;20271;-66
2021/07/09 13:04:49;;;;;;;38.85;20.90;;;;;;;;;;5042639;28;20026;-67
2021/07/09 13:07:16;;;;;;;39.17;15.47;;;;;;;;;;5043856;28;20485;-65
2021/07/09 13:09:45;;;;;;;31.42;16.65;;;;;;;;;;5050970;28;20679;-66
2021/07/09 13:12:11;;;;;;;34.03;18.92;;;;;;;;;;5042192;28;20549;-66
2021/07/09 13:14:47;;;;;;;31.27;18.50;;;;;;;;;;5045688;28;20108;-65
2021/07/09 13:17:15;;;;;;;40.08;18.23;;;;;;;;;;5047345;28;20032;-65
2021/07/09 13:19:40;;;;;;;39.90;21.50;;;;;;;;;;5052129;28;20248;-66
2021/07/09 13:22:06;;;;;;;43.20;21.20;;;;;;;;;;5035923;28;20473;-66
2021/07/09 13:24:32;;;;;;;34.92;17.25;;;;;;;;;;5047661;28;20178;-65
2021/07/09 13:26:58;;;;;;;23.83;12.45;;;;;;;;;;5038990;28;20025;-65
2021/07/09 13:29:24;;;;;;;17.98;12.48;;;;;;;;;;5046594;28;20013;-65
2021/07/09 13:32:00;;;;;;;24.67;15.43;;;;;;;;;;5050037;28;20020;-65
2021/07/09 13:34:25;;;;;;;27.98;14.68;;;;;;;;;;5053004;28;20024;-65
2021/07/09 13:36:51;;;;;;;20.67;14.30;;;;;;;;;;5055566;28;20028;-66
2021/07/09 13:39:16;;;;;;;23.90;13.57;;;;;;;;;;5046903;28;20041;-65
2021/07/09 13:41:42;;;;;;;24.33;14.77;;;;;;;;;;5050770;28;20504;-65
2021/07/09 13:44:08;;;;;;;22.88;15.43;;;;;;;;;;5047897;28;20028;-66
2021/07/09 13:46:33;;;;;;;27.52;17.98;;;;;;;;;;5044555;28;20050;-65
2021/07/09 13:48:58;;;;;;;32.85;19.60;;;;;;;;;;5059913;28;20028;-65
2021/07/09 13:51:24;;;;;;;33.20;19.92;;;;;;;;;;5049548;28;20032;-65
2021/07/09 13:53:49;;;;;;;41.92;20.58;;;;;;;;;;5048150;28;20017;-65
2021/07/09 13:56:14;;;;;;;33.28;19.27;;;;;;;;;;5047420;28;20028;-66
2021/07/09 13:58:40;;;;;;;28.98;18.10;;;;;;;;;;5048428;28;20019;-66
2021/07/09 14:01:06;;;;;;;28.27;17.65;;;;;;;;;;5040914;28;20112;-66
2021/07/09 14:03:32;;;;;;;27.02;17.02;;;;;;;;;;5048619;28;20473;-65
2021/07/09 14:05:57;;;;;;;30.02;18.50;;;;;;;;;;5049805;28;20321;-66
2021/07/09 14:08:23;;;;;;;32.65;18.77;;;;;;;;;;5049691;28;20392;-66
2021/07/09 14:10:55;;;;;;;32.60;18.02;;;;;;;;;;5044751;28;20029;-66
2021/07/09 14:13:21;;;;;;;25.42;16.92;;;;;;;;;;5040580;28;20029;-65
2021/07/09 14:15:46;;;;;;;24.38;16.10;;;;;;;;;;5049320;28;20033;-65
2021/07/09 14:18:12;;;;;;;27.80;17.10;;;;;;;;;;5048497;28;20293;-65